createdAt,value
2023-03-19T00:01:03.994Z,65.77
2023-03-19T00:03:42.147Z,66.09
2023-03-19T00:06:10.238Z,66.30
2023-03-19T00:08:38.568Z,66.30
2023-03-19T00:11:08.177Z,66.38
2023-03-19T00:13:37.085Z,66.37
2023-03-19T00:16:06.244Z,66.51
2023-03-19T00:18:34.657Z,66.45
2023-03-19T00:21:02.956Z,66.47
2023-03-19T00:23:31.530Z,66.54
2023-03-19T00:25:59.590Z,66.54
2023-03-19T00:28:28.290Z,66.48
2023-03-19T00:30:57.035Z,66.53
2023-03-19T00:33:25.986Z,66.49
2023-03-19T00:35:54.102Z,66.75
2023-03-19T00:38:22.254Z,66.69
2023-03-19T00:40:50.630Z,66.58
2023-03-19T00:43:18.705Z,66.65
2023-03-19T00:45:48.428Z,66.85
2023-03-19T00:48:17.728Z,66.72
2023-03-19T00:50:46.417Z,67.16
2023-03-19T00:53:15.108Z,66.94
2023-03-19T00:55:43.493Z,67.09
2023-03-19T00:58:11.580Z,67.18
2023-03-19T01:00:40.158Z,67.27
2023-03-19T01:03:08.438Z,67.49
2023-03-19T01:08:04.922Z,67.72
2023-03-19T01:10:34.240Z,67.73
2023-03-19T01:13:04.020Z,68.14
2023-03-19T01:15:35.671Z,68.01
2023-03-19T01:18:04.160Z,67.99
2023-03-19T01:20:33.077Z,67.99
2023-03-19T01:23:02.066Z,68.00
2023-03-19T01:25:31.670Z,67.85
2023-03-19T01:28:04.554Z,67.76
2023-03-19T01:30:32.981Z,67.95
2023-03-19T01:33:18.311Z,67.80
2023-03-19T01:36:03.674Z,67.86
2023-03-19T01:38:39.946Z,67.90
2023-03-19T01:41:15.089Z,68.07
2023-03-19T01:43:43.678Z,68.03
2023-03-19T01:46:37.230Z,68.03
2023-03-19T01:49:26.301Z,68.01
2023-03-19T01:52:09.305Z,68.06
2023-03-19T01:54:46.802Z,68.06
2023-03-19T01:57:41.386Z,68.32
2023-03-19T02:00:24.701Z,68.37
2023-03-19T02:02:58.518Z,68.28
2023-03-19T02:05:39.900Z,68.38
2023-03-19T02:08:11.861Z,68.61
2023-03-19T02:10:41.480Z,68.47
2023-03-19T02:13:10.181Z,68.47
2023-03-19T02:15:39.981Z,68.62
2023-03-19T02:18:08.792Z,68.57
2023-03-19T02:20:41.146Z,68.64
2023-03-19T02:23:27.494Z,68.54
2023-03-19T02:26:01.663Z,68.46
2023-03-19T02:28:30.704Z,68.52
2023-03-19T02:30:58.961Z,68.59
2023-03-19T02:33:27.527Z,68.52
2023-03-19T02:35:56.798Z,68.54
2023-03-19T02:38:26.247Z,68.60
2023-03-19T02:41:12.634Z,68.72
2023-03-19T02:43:42.188Z,68.47
2023-03-19T02:46:12.832Z,68.35
2023-03-19T02:48:42.288Z,68.48
2023-03-19T02:51:10.606Z,68.36
2023-03-19T02:53:39.167Z,68.58
2023-03-19T02:56:08.076Z,68.22
2023-03-19T02:58:36.544Z,68.38
2023-03-19T03:01:05.037Z,68.10
2023-03-19T03:03:33.524Z,68.01
2023-03-19T03:06:01.727Z,67.96
2023-03-19T03:08:30.390Z,67.85
2023-03-19T03:10:58.675Z,68.05
2023-03-19T03:13:28.192Z,67.90
2023-03-19T03:15:56.690Z,67.97
2023-03-19T03:18:25.055Z,68.06
2023-03-19T03:20:53.970Z,68.03
2023-03-19T03:23:22.233Z,68.20
2023-03-19T03:25:51.476Z,68.18
2023-03-19T03:28:20.338Z,68.20
2023-03-19T03:30:49.329Z,68.10
2023-03-19T03:33:17.624Z,68.29
2023-03-19T03:35:46.748Z,68.27
2023-03-19T03:38:14.794Z,68.63
2023-03-19T03:40:42.867Z,68.89
2023-03-19T03:43:11.159Z,68.93
2023-03-19T03:45:39.594Z,68.99
2023-03-19T03:48:08.750Z,69.05
2023-03-19T03:50:38.766Z,69.11
2023-03-19T03:53:09.692Z,69.29
2023-03-19T03:55:39.008Z,69.57
2023-03-19T03:58:07.400Z,69.37
2023-03-19T04:00:36.242Z,69.45
2023-03-19T04:03:04.714Z,69.63
2023-03-19T04:05:33.060Z,69.83
2023-03-19T04:08:01.550Z,69.78
2023-03-19T04:10:30.541Z,70.01
2023-03-19T04:12:59.638Z,70.13
2023-03-19T04:15:28.957Z,70.08
2023-03-19T04:17:57.851Z,70.04
2023-03-19T04:20:26.229Z,70.03
2023-03-19T04:22:54.305Z,70.09
2023-03-19T04:25:22.697Z,70.40
2023-03-19T04:27:50.977Z,70.32
2023-03-19T04:30:19.253Z,70.24
2023-03-19T04:32:48.306Z,70.41
2023-03-19T04:35:19.202Z,70.63
2023-03-19T04:37:48.957Z,70.42
2023-03-19T04:40:18.597Z,70.51
2023-03-19T04:42:47.428Z,70.63
2023-03-19T04:45:27.392Z,70.75
2023-03-19T04:47:56.672Z,70.97
2023-03-19T04:50:25.280Z,70.96
2023-03-19T04:52:54.978Z,70.97
2023-03-19T04:55:23.974Z,71.07
2023-03-19T04:57:59.220Z,70.83
2023-03-19T05:00:30.971Z,70.79
2023-03-19T05:02:59.975Z,70.61
2023-03-19T05:05:29.686Z,70.59
2023-03-19T05:07:58.598Z,70.59
2023-03-19T05:10:27.285Z,70.91
2023-03-19T05:12:56.169Z,70.89
2023-03-19T05:15:24.469Z,70.78
2023-03-19T05:17:59.498Z,70.97
2023-03-19T05:20:34.584Z,71.06
2023-03-19T05:23:06.902Z,71.21
2023-03-19T05:25:44.718Z,71.21
2023-03-19T05:28:14.614Z,71.11
2023-03-19T05:30:43.821Z,71.37
2023-03-19T05:33:38.093Z,71.16
2023-03-19T05:36:08.018Z,71.28
2023-03-19T05:38:50.213Z,71.26
2023-03-19T05:41:25.154Z,71.25
2023-03-19T05:44:01.873Z,71.45
2023-03-19T05:46:57.561Z,71.35
2023-03-19T05:49:28.373Z,71.30
2023-03-19T05:51:57.366Z,71.05
2023-03-19T05:54:25.968Z,71.07
2023-03-19T05:57:20.237Z,70.79
2023-03-19T05:59:48.319Z,70.83
2023-03-19T06:02:25.724Z,70.98
2023-03-19T06:04:55.717Z,70.93
2023-03-19T06:07:27.370Z,70.76
2023-03-19T06:09:55.568Z,70.28
2023-03-19T06:12:25.077Z,70.27
2023-03-19T06:14:53.556Z,70.28
2023-03-19T06:17:42.200Z,70.08
2023-03-19T06:20:11.826Z,69.99
2023-03-19T06:22:40.715Z,69.82
2023-03-19T06:25:08.993Z,69.92
2023-03-19T06:27:38.842Z,69.83
2023-03-19T06:30:27.460Z,69.69
2023-03-19T06:32:56.986Z,69.77
2023-03-19T06:35:26.500Z,69.60
2023-03-19T06:37:54.962Z,69.88
2023-03-19T06:40:23.243Z,69.65
2023-03-19T06:42:51.428Z,69.60
2023-03-19T06:45:20.424Z,69.62
2023-03-19T06:47:51.102Z,69.81
2023-03-19T06:50:21.696Z,69.51
2023-03-19T06:52:49.879Z,69.16
2023-03-19T06:55:18.539Z,69.25
2023-03-19T06:57:50.857Z,68.91
2023-03-19T07:00:19.536Z,69.00
2023-03-19T07:02:48.020Z,68.94
2023-03-19T07:05:16.709Z,68.73
2023-03-19T07:07:44.890Z,68.30
2023-03-19T07:10:13.985Z,68.01
2023-03-19T07:12:42.371Z,67.79
2023-03-19T07:15:11.613Z,67.59
2023-03-19T07:17:40.058Z,67.15
2023-03-19T07:20:09.261Z,67.01
2023-03-19T07:22:37.513Z,66.91
2023-03-19T07:25:06.337Z,66.53
2023-03-19T07:27:34.418Z,66.25
2023-03-19T07:30:02.725Z,66.14
2023-03-19T07:32:31.758Z,65.86
2023-03-19T07:35:00.189Z,65.43
2023-03-19T07:37:28.466Z,65.21
2023-03-19T07:39:56.642Z,65.09
2023-03-19T07:42:25.129Z,64.88
2023-03-19T07:44:53.516Z,64.78
2023-03-19T07:47:28.887Z,64.61
2023-03-19T07:49:58.542Z,64.38
2023-03-19T07:52:27.078Z,63.73
2023-03-19T07:54:55.864Z,63.41
2023-03-19T07:57:26.081Z,62.90
2023-03-19T07:59:54.468Z,62.83
2023-03-19T08:02:23.690Z,62.59
2023-03-19T08:04:52.298Z,62.46
2023-03-19T08:07:20.954Z,62.27
2023-03-19T08:09:49.433Z,61.47
2023-03-19T08:12:18.017Z,60.63
2023-03-19T08:14:46.297Z,59.80
2023-03-19T08:17:14.388Z,60.25
2023-03-19T08:19:43.171Z,60.10
2023-03-19T08:22:11.967Z,59.70
2023-03-19T08:24:40.353Z,59.52
2023-03-19T08:27:20.707Z,59.11
2023-03-19T08:29:49.089Z,59.26
2023-03-19T08:32:17.170Z,59.63
2023-03-19T08:34:47.632Z,59.36
2023-03-19T08:37:17.722Z,59.22
2023-03-19T08:39:46.116Z,59.52
2023-03-19T08:42:14.413Z,58.80
2023-03-19T08:44:43.139Z,58.71
2023-03-19T08:47:12.386Z,58.57
2023-03-19T08:49:41.076Z,58.60
2023-03-19T08:52:09.563Z,58.67
2023-03-19T08:54:37.745Z,58.26
2023-03-19T08:57:06.438Z,58.33
2023-03-19T08:59:37.799Z,57.99
2023-03-19T09:02:06.439Z,57.60
2023-03-19T09:04:39.214Z,56.27
2023-03-19T09:07:07.655Z,56.24
2023-03-19T09:09:36.135Z,56.72
2023-03-19T09:12:04.538Z,56.41
2023-03-19T09:14:33.313Z,56.67
2023-03-19T09:17:01.599Z,56.72
2023-03-19T09:19:31.465Z,56.58
2023-03-19T09:22:01.534Z,56.03
2023-03-19T09:24:29.616Z,55.91
2023-03-19T09:26:57.692Z,56.08
2023-03-19T09:29:25.767Z,55.66
2023-03-19T09:32:01.019Z,55.28
2023-03-19T09:34:29.391Z,55.42
2023-03-19T09:36:57.491Z,55.62
2023-03-19T09:39:25.655Z,54.70
2023-03-19T09:42:11.373Z,55.08
2023-03-19T09:44:44.282Z,53.99
2023-03-19T09:47:31.943Z,53.51
2023-03-19T09:50:09.535Z,53.51
2023-03-19T09:52:49.748Z,53.28
2023-03-19T09:55:21.045Z,53.65
2023-03-19T09:57:49.985Z,53.27
2023-03-19T10:00:26.210Z,53.33
2023-03-19T10:02:59.004Z,52.95
2023-03-19T10:05:45.672Z,52.38
2023-03-19T10:08:26.452Z,53.05
2023-03-19T10:11:15.617Z,53.46
2023-03-19T10:13:53.411Z,52.77
2023-03-19T10:16:27.200Z,53.04
2023-03-19T10:18:59.274Z,52.72
2023-03-19T10:21:45.913Z,52.86
2023-03-19T10:24:16.829Z,52.77
2023-03-19T10:26:45.931Z,52.09
2023-03-19T10:29:17.178Z,51.95
2023-03-19T10:32:06.236Z,51.96
2023-03-19T10:34:41.392Z,52.31
2023-03-19T10:37:12.738Z,51.74
2023-03-19T10:39:42.955Z,51.70
2023-03-19T10:42:31.975Z,51.03
2023-03-19T10:45:11.559Z,50.63
2023-03-19T10:47:41.329Z,50.38
2023-03-19T10:50:23.366Z,49.80
2023-03-19T10:52:53.283Z,49.25
2023-03-19T10:55:25.532Z,48.88
2023-03-19T10:57:57.460Z,48.95
2023-03-19T11:00:27.330Z,49.10
2023-03-19T11:02:56.402Z,49.46
2023-03-19T11:05:31.567Z,48.77
2023-03-19T11:08:02.233Z,47.56
2023-03-19T11:10:32.249Z,48.17
2023-03-19T11:13:05.435Z,47.23
2023-03-19T11:15:36.718Z,46.23
2023-03-19T11:18:24.364Z,45.50
2023-03-19T11:20:58.383Z,44.05
2023-03-19T11:23:30.799Z,42.66
2023-03-19T11:26:02.034Z,39.03
2023-03-19T11:28:34.044Z,38.92
2023-03-19T11:31:15.602Z,39.89
2023-03-19T11:33:46.744Z,39.84
2023-03-19T11:36:33.641Z,36.93
2023-03-19T11:39:10.727Z,36.27
2023-03-19T11:41:51.090Z,37.39
2023-03-19T11:44:22.740Z,35.94
2023-03-19T11:47:28.401Z,35.51
2023-03-19T11:50:06.076Z,36.21
2023-03-19T11:52:34.556Z,36.29
2023-03-19T11:55:16.828Z,35.98
2023-03-19T11:57:55.005Z,36.40
2023-03-19T12:00:26.227Z,36.90
2023-03-19T12:03:00.758Z,37.28
2023-03-19T12:05:34.328Z,36.73
2023-03-19T12:08:21.588Z,35.86
2023-03-19T12:10:59.571Z,36.47
2023-03-19T12:13:41.577Z,35.65
2023-03-19T12:16:13.825Z,34.10
2023-03-19T12:19:00.128Z,33.82
2023-03-19T12:21:35.260Z,35.05
2023-03-19T12:24:05.606Z,33.70
2023-03-19T12:26:33.774Z,33.56
2023-03-19T12:29:07.845Z,32.47
2023-03-19T12:31:51.516Z,32.64
2023-03-19T12:34:32.213Z,32.94
2023-03-19T12:37:07.729Z,31.15
2023-03-19T12:39:50.695Z,29.95
2023-03-19T12:42:20.355Z,30.05
2023-03-19T12:44:55.195Z,29.71
2023-03-19T12:47:26.952Z,29.21
2023-03-19T12:49:57.331Z,28.57
2023-03-19T12:52:31.695Z,27.33
2023-03-19T12:55:00.092Z,26.90
2023-03-19T12:57:40.922Z,26.91
2023-03-19T13:00:36.148Z,26.18
2023-03-19T13:03:07.297Z,26.69
2023-03-19T13:05:45.215Z,26.20
2023-03-19T13:08:35.587Z,24.84
2023-03-19T13:11:08.990Z,24.78
2023-03-19T13:13:42.699Z,24.86
2023-03-19T13:16:34.629Z,24.75
2023-03-19T13:19:06.748Z,25.48
2023-03-19T13:21:36.091Z,25.65
2023-03-19T13:24:04.369Z,24.88
2023-03-19T13:26:34.188Z,23.99
2023-03-19T13:29:08.297Z,23.87
2023-03-19T13:31:37.517Z,22.95
2023-03-19T13:34:28.921Z,22.67
2023-03-19T13:36:59.960Z,22.76
2023-03-19T13:39:30.079Z,23.12
2023-03-19T13:42:08.903Z,23.32
2023-03-19T13:44:42.416Z,23.75
2023-03-19T13:47:33.817Z,23.93
2023-03-19T13:50:11.228Z,23.90
2023-03-19T13:52:45.926Z,24.06
2023-03-19T13:55:20.761Z,23.40
2023-03-19T13:58:38.191Z,23.20
2023-03-19T14:01:09.445Z,23.12
2023-03-19T14:03:40.979Z,23.43
2023-03-19T14:06:29.263Z,22.89
2023-03-19T14:08:57.692Z,23.12
2023-03-19T14:11:29.561Z,22.75
2023-03-19T14:14:01.736Z,22.53
2023-03-19T14:16:32.115Z,22.79
2023-03-19T14:19:02.669Z,22.55
2023-03-19T14:21:39.602Z,22.60
2023-03-19T14:24:54.744Z,22.50
2023-03-19T14:27:15.740Z,21.99
2023-03-19T14:29:45.518Z,21.82
2023-03-19T14:32:18.213Z,22.19
2023-03-19T14:34:47.082Z,22.50
2023-03-19T14:37:37.526Z,22.36
2023-03-19T14:40:11.950Z,22.49
2023-03-19T14:42:44.400Z,22.43
2023-03-19T14:45:14.457Z,22.07
2023-03-19T14:48:06.468Z,22.42
2023-03-19T14:50:50.816Z,22.87
2023-03-19T14:53:30.556Z,23.77
2023-03-19T14:56:03.250Z,24.30
2023-03-19T14:58:31.417Z,24.59
2023-03-19T15:00:59.547Z,25.07
2023-03-19T15:03:28.083Z,24.99
2023-03-19T15:05:57.604Z,24.93
2023-03-19T15:08:26.917Z,24.85
2023-03-19T15:10:55.389Z,25.10
2023-03-19T15:13:33.188Z,24.66
2023-03-19T15:16:12.731Z,25.52
2023-03-19T15:18:41.213Z,26.18
2023-03-19T15:21:09.753Z,26.87
2023-03-19T15:23:39.719Z,28.35
2023-03-19T15:26:12.092Z,29.80
2023-03-19T15:28:47.132Z,31.16
2023-03-19T15:31:30.895Z,32.79
2023-03-19T15:34:01.909Z,33.84
2023-03-19T15:36:33.417Z,35.42
2023-03-19T15:39:07.702Z,36.16
2023-03-19T15:41:37.614Z,37.19
2023-03-19T15:44:09.015Z,37.51
2023-03-19T15:46:39.931Z,38.66
2023-03-19T15:49:20.359Z,39.00
2023-03-19T15:51:51.810Z,39.90
2023-03-19T15:54:20.951Z,40.83
2023-03-19T15:56:50.446Z,42.21
2023-03-19T15:59:20.748Z,42.14
2023-03-19T16:01:50.179Z,42.68
2023-03-19T16:04:22.749Z,42.84
2023-03-19T16:06:51.493Z,43.93
2023-03-19T16:09:24.320Z,45.09
2023-03-19T16:11:52.799Z,46.19
2023-03-19T16:14:25.304Z,46.59
2023-03-19T16:17:00.211Z,46.61
2023-03-19T16:19:39.141Z,47.53
2023-03-19T16:22:15.413Z,48.54
2023-03-19T16:24:48.958Z,48.58
2023-03-19T16:27:24.037Z,48.99
2023-03-19T16:29:57.370Z,48.94
2023-03-19T16:32:29.402Z,49.34
2023-03-19T16:35:04.001Z,49.95
2023-03-19T16:37:35.192Z,51.16
2023-03-19T16:40:03.882Z,51.31
2023-03-19T16:42:35.122Z,51.06
2023-03-19T16:45:18.075Z,51.52
2023-03-19T16:47:47.746Z,51.40
2023-03-19T16:50:16.910Z,51.41
2023-03-19T16:52:46.257Z,51.15
2023-03-19T16:55:22.681Z,50.94
2023-03-19T16:57:55.363Z,50.53
2023-03-19T17:00:24.828Z,50.14
2023-03-19T17:02:55.868Z,50.06
2023-03-19T17:05:24.686Z,50.29
2023-03-19T17:07:57.682Z,50.13
2023-03-19T17:10:27.567Z,50.18
2023-03-19T17:12:56.845Z,50.51
2023-03-19T17:15:39.086Z,51.15
2023-03-19T17:18:16.866Z,53.45
2023-03-19T17:20:51.130Z,53.82
2023-03-19T17:23:19.670Z,53.10
2023-03-19T17:25:48.060Z,52.95
2023-03-19T17:28:16.227Z,52.52
2023-03-19T17:30:45.030Z,52.86
2023-03-19T17:33:25.093Z,52.34
2023-03-19T17:35:53.693Z,52.32
2023-03-19T17:38:22.665Z,52.90
2023-03-19T17:40:51.046Z,53.21
2023-03-19T17:43:22.003Z,54.92
2023-03-19T17:45:51.213Z,54.63
2023-03-19T17:48:26.543Z,53.84
2023-03-19T17:50:58.840Z,54.33
2023-03-19T17:53:27.413Z,53.96
2023-03-19T17:55:55.578Z,54.36
2023-03-19T17:58:24.178Z,54.49
2023-03-19T18:00:53.401Z,53.81
2023-03-19T18:03:22.884Z,53.96
2023-03-19T18:05:51.065Z,55.52
2023-03-19T18:08:22.477Z,55.00
2023-03-19T18:10:51.209Z,54.87
2023-03-19T18:13:19.501Z,54.71
2023-03-19T18:15:50.781Z,54.66
2023-03-19T18:18:21.481Z,54.11
2023-03-19T18:20:50.162Z,54.39
2023-03-19T18:23:18.464Z,54.09
2023-03-19T18:25:50.116Z,54.23
2023-03-19T18:28:18.296Z,53.68
2023-03-19T18:30:46.576Z,53.70
2023-03-19T18:33:17.200Z,53.92
2023-03-19T18:35:46.219Z,54.40
2023-03-19T18:38:16.733Z,54.28
2023-03-19T18:40:47.376Z,54.56
2023-03-19T18:43:16.366Z,54.10
2023-03-19T18:45:47.467Z,54.66
2023-03-19T18:48:24.505Z,54.18
2023-03-19T18:50:53.218Z,54.63
2023-03-19T18:53:21.884Z,55.06
2023-03-19T18:55:50.789Z,54.73
2023-03-19T18:58:20.905Z,55.00
2023-03-19T19:00:50.266Z,55.18
2023-03-19T19:03:20.583Z,55.48
2023-03-19T19:05:49.929Z,56.87
2023-03-19T19:08:19.865Z,56.56
2023-03-19T19:10:55.957Z,56.25
2023-03-19T19:13:29.851Z,56.17
2023-03-19T19:15:58.626Z,55.91
2023-03-19T19:18:30.800Z,57.09
2023-03-19T19:21:00.825Z,57.45
2023-03-19T19:23:30.473Z,56.99
2023-03-19T19:25:58.723Z,57.13
2023-03-19T19:28:30.928Z,57.96
2023-03-19T19:30:59.999Z,57.33
2023-03-19T19:33:31.858Z,57.17
2023-03-19T19:36:00.103Z,57.02
2023-03-19T19:38:28.519Z,56.71
2023-03-19T19:40:58.496Z,56.63
2023-03-19T19:43:30.236Z,57.18
2023-03-19T19:46:05.610Z,57.31
2023-03-19T19:48:34.355Z,57.84
2023-03-19T19:51:02.717Z,58.47
2023-03-19T19:53:31.210Z,59.51
2023-03-19T19:56:00.134Z,61.86
2023-03-19T19:58:32.133Z,63.47
2023-03-19T20:01:04.238Z,65.02
2023-03-19T20:03:34.457Z,64.57
2023-03-19T20:06:03.566Z,63.47
2023-03-19T20:08:32.975Z,63.82
2023-03-19T20:11:02.350Z,64.71
2023-03-19T20:13:34.963Z,64.04
2023-03-19T20:16:03.748Z,64.21
2023-03-19T20:18:35.871Z,64.30
2023-03-19T20:21:07.283Z,65.37
2023-03-19T20:23:36.381Z,65.76
2023-03-19T20:26:04.656Z,65.07
2023-03-19T20:28:35.719Z,65.80
2023-03-19T20:31:04.832Z,64.98
2023-03-19T20:33:34.716Z,64.99
2023-03-19T20:36:03.391Z,64.84
2023-03-19T20:38:31.696Z,65.13
2023-03-19T20:40:59.971Z,65.99
2023-03-19T20:43:30.271Z,66.79
2023-03-19T20:45:59.814Z,66.93
2023-03-19T20:48:28.200Z,66.84
2023-03-19T20:50:56.660Z,66.54
2023-03-19T20:53:25.475Z,66.75
2023-03-19T20:55:54.283Z,67.14
2023-03-19T20:58:28.114Z,67.42
2023-03-19T21:00:57.956Z,67.39
2023-03-19T21:03:28.029Z,67.15
2023-03-19T21:06:02.120Z,67.18
2023-03-19T21:08:39.622Z,67.35
2023-03-19T21:11:14.149Z,67.27
2023-03-19T21:13:44.192Z,67.46
2023-03-19T21:16:17.633Z,67.41
2023-03-19T21:18:46.468Z,67.15
2023-03-19T21:21:15.467Z,67.61
2023-03-19T21:23:56.126Z,67.13
2023-03-19T21:26:24.925Z,66.85
2023-03-19T21:28:55.461Z,66.63
2023-03-19T21:31:24.073Z,66.61
2023-03-19T21:33:52.436Z,66.67
2023-03-19T21:36:20.827Z,66.49
2023-03-19T21:38:51.042Z,66.06
2023-03-19T21:41:19.938Z,66.02
2023-03-19T21:43:56.370Z,65.91
2023-03-19T21:46:26.459Z,65.73
2023-03-19T21:48:55.861Z,65.44
2023-03-19T21:51:26.282Z,65.18
2023-03-19T21:53:54.651Z,64.95
2023-03-19T21:56:22.944Z,65.02
2023-03-19T21:58:54.300Z,65.03
2023-03-19T22:01:23.874Z,65.39
2023-03-19T22:03:53.102Z,65.59
2023-03-19T22:06:22.330Z,65.41
2023-03-19T22:08:53.984Z,65.38
2023-03-19T22:11:34.842Z,65.17
2023-03-19T22:14:11.094Z,65.36
2023-03-19T22:16:39.615Z,65.14
2023-03-19T22:19:12.470Z,65.20
2023-03-19T22:21:40.542Z,65.09
2023-03-19T22:24:08.927Z,65.44
2023-03-19T22:26:38.636Z,65.06
2023-03-19T22:29:11.326Z,64.90
2023-03-19T22:31:41.237Z,65.16
2023-03-19T22:34:16.673Z,64.75
2023-03-19T22:36:45.087Z,65.13
2023-03-19T22:39:13.800Z,64.77
2023-03-19T22:41:47.982Z,65.19
2023-03-19T22:44:23.434Z,65.27
2023-03-19T22:46:52.433Z,65.43
2023-03-19T22:49:20.918Z,65.35
2023-03-19T22:51:49.110Z,65.09
2023-03-19T22:54:17.489Z,65.27
2023-03-19T22:56:45.767Z,65.64
2023-03-19T22:59:14.250Z,65.54
2023-03-19T23:01:49.540Z,65.47
2023-03-19T23:04:22.757Z,65.15
2023-03-19T23:06:51.806Z,65.24
2023-03-19T23:09:24.701Z,65.22
2023-03-19T23:11:53.898Z,65.36
2023-03-19T23:14:29.672Z,65.61
2023-03-19T23:17:00.995Z,65.32
2023-03-19T23:19:33.299Z,65.18
2023-03-19T23:22:03.389Z,65.36
2023-03-19T23:24:31.756Z,65.56
2023-03-19T23:27:00.580Z,65.58
2023-03-19T23:29:31.300Z,65.58
2023-03-19T23:31:59.518Z,65.40
2023-03-19T23:34:28.842Z,65.35
2023-03-19T23:36:58.183Z,65.43
2023-03-19T23:39:26.378Z,65.14
2023-03-19T23:41:56.187Z,65.40
2023-03-19T23:44:25.107Z,65.12
2023-03-19T23:46:54.079Z,65.34
2023-03-19T23:49:29.022Z,65.67
2023-03-19T23:51:57.796Z,65.56
2023-03-19T23:54:34.166Z,66.05
2023-03-19T23:57:05.191Z,66.32
2023-03-19T23:59:34.823Z,66.34
